PRIVATE WETTERSTATION BILLIGHEIM-ALLFELD                       ZURCK
Wetterdaten: Mittwoch, 22.03.2017
Datum Zeit Temp. A. Temp. A. min Temp. A. max Feuchte A. Luftdruck Regen Wind Richtung Richtung Sonnenschein ET Solar Taupunkt Windchill Windben Empfang
22.03.2017 00:00 3,6 C 3,5 C 3,6 C 92 % 1014,2 hPa 0,2 l/m 0,0 km/h (0 Bft) N-NO 22 0 min 0,000 mm 0 W/m 2,4 C 3,6 C 3,2 km/h (1 Bft) 100 %
22.03.2017 00:10 3,6 C 3,5 C 3,6 C 92 % 1014,1 hPa 0,0 l/m 0,0 km/h (0 Bft) N-NO 22 0 min 0,000 mm 0 W/m 2,4 C 3,6 C 1,6 km/h (1 Bft) 100 %
22.03.2017 00:20 3,6 C 3,6 C 3,6 C 91 % 1014,0 hPa 0,0 l/m 0,0 km/h (0 Bft) N 0 0 min 0,000 mm 0 W/m 2,3 C 3,6 C 0,0 km/h (0 Bft) 100 %
22.03.2017 00:30 3,6 C 3,6 C 3,6 C 91 % 1014,0 hPa 0,0 l/m 0,0 km/h (0 Bft) N 0 0 min 0,000 mm 0 W/m 2,3 C 3,6 C 0,0 km/h (0 Bft) 99 %
22.03.2017 00:40 3,6 C 3,6 C 3,6 C 91 % 1013,9 hPa 0,0 l/m 0,0 km/h (0 Bft) N 0 0 min 0,000 mm 0 W/m 2,3 C 3,6 C 0,0 km/h (0 Bft) 100 %
22.03.2017 00:50 3,5 C 3,5 C 3,6 C 91 % 1013,9 hPa 0,0 l/m 0,0 km/h (0 Bft) N 0 0 min 0,000 mm 0 W/m 2,2 C 3,5 C 0,0 km/h (0 Bft) 100 %
22.03.2017 01:00 3,5 C 3,5 C 3,6 C 91 % 1013,9 hPa 0,2 l/m 0,0 km/h (0 Bft) N 0 0 min 0,000 mm 0 W/m 2,2 C 3,5 C 0,0 km/h (0 Bft) 91 %
22.03.2017 01:10 3,4 C 3,4 C 3,5 C 91 % 1013,8 hPa 0,0 l/m 0,0 km/h (0 Bft) N 0 0 min 0,000 mm 0 W/m 2,1 C 3,4 C 0,0 km/h (0 Bft) 100 %
22.03.2017 01:20 3,4 C 3,4 C 3,4 C 91 % 1013,8 hPa 0,0 l/m 0,0 km/h (0 Bft) N 0 0 min 0,000 mm 0 W/m 2,1 C 3,4 C 0,0 km/h (0 Bft) 100 %
22.03.2017 01:30 3,4 C 3,4 C 3,4 C 91 % 1013,8 hPa 0,0 l/m 0,0 km/h (0 Bft) N 0 0 min 0,000 mm 0 W/m 2,1 C 3,4 C 0,0 km/h (0 Bft) 100 %
22.03.2017 01:40 3,4 C 3,4 C 3,4 C 91 % 1013,7 hPa 0,0 l/m 0,0 km/h (0 Bft) N 0 0 min 0,000 mm 0 W/m 2,1 C 3,4 C 0,0 km/h (0 Bft) 100 %
22.03.2017 01:50 3,3 C 3,3 C 3,4 C 91 % 1013,6 hPa 0,0 l/m 0,0 km/h (0 Bft) N 0 0 min 0,000 mm 0 W/m 2,0 C 3,3 C 0,0 km/h (0 Bft) 100 %
22.03.2017 02:00 3,4 C 3,3 C 3,4 C 91 % 1013,6 hPa 0,0 l/m 0,0 km/h (0 Bft) N 0 0 min 0,000 mm 0 W/m 2,1 C 3,4 C 0,0 km/h (0 Bft) 100 %
22.03.2017 02:10 3,4 C 3,4 C 3,4 C 91 % 1013,5 hPa 0,0 l/m 0,0 km/h (0 Bft) N 0 0 min 0,000 mm 0 W/m 2,1 C 3,4 C 0,0 km/h (0 Bft) 100 %
22.03.2017 02:20 3,5 C 3,4 C 3,5 C 91 % 1013,5 hPa 0,0 l/m 0,0 km/h (0 Bft) O 90 0 min 0,000 mm 0 W/m 2,2 C 3,5 C 3,2 km/h (1 Bft) 100 %
22.03.2017 02:30 3,5 C 3,4 C 3,5 C 91 % 1013,3 hPa 0,0 l/m 1,6 km/h (1 Bft) O-SO 112 0 min 0,000 mm 0 W/m 2,2 C 3,5 C 4,8 km/h (1 Bft) 100 %
22.03.2017 02:40 3,6 C 3,5 C 3,6 C 92 % 1013,3 hPa 0,0 l/m 1,6 km/h (1 Bft) O-SO 112 0 min 0,000 mm 0 W/m 2,4 C 3,6 C 4,8 km/h (1 Bft) 100 %
22.03.2017 02:50 3,6 C 3,6 C 3,6 C 91 % 1013,3 hPa 0,0 l/m 1,6 km/h (1 Bft) O-SO 112 0 min 0,000 mm 0 W/m 2,3 C 3,6 C 4,8 km/h (1 Bft) 89 %
22.03.2017 03:00 3,7 C 3,6 C 3,7 C 91 % 1013,3 hPa 0,0 l/m 1,6 km/h (1 Bft) O-SO 112 0 min 0,000 mm 0 W/m 2,4 C 3,7 C 6,4 km/h (2 Bft) 100 %
22.03.2017 03:10 3,8 C 3,7 C 3,8 C 92 % 1013,5 hPa 0,0 l/m 0,0 km/h (0 Bft) O 90 0 min 0,000 mm 0 W/m 2,6 C 3,8 C 8,0 km/h (2 Bft) 100 %
22.03.2017 03:20 3,9 C 3,8 C 3,9 C 91 % 1013,5 hPa 0,0 l/m 0,0 km/h (0 Bft) O 90 0 min 0,000 mm 0 W/m 2,6 C 3,9 C 6,4 km/h (2 Bft) 100 %
22.03.2017 03:30 3,9 C 3,8 C 3,9 C 91 % 1013,4 hPa 0,0 l/m 0,0 km/h (0 Bft) O 90 0 min 0,000 mm 0 W/m 2,6 C 3,9 C 1,6 km/h (1 Bft) 100 %
22.03.2017 03:40 3,9 C 3,9 C 3,9 C 91 % 1013,4 hPa 0,0 l/m 0,0 km/h (0 Bft) O 90 0 min 0,000 mm 0 W/m 2,6 C 3,9 C 9,7 km/h (2 Bft) 100 %
22.03.2017 03:50 3,9 C 3,9 C 3,9 C 91 % 1013,3 hPa 0,0 l/m 0,0 km/h (0 Bft) O 90 0 min 0,000 mm 0 W/m 2,6 C 3,9 C 4,8 km/h (1 Bft) 100 %
22.03.2017 04:00 3,9 C 3,9 C 3,9 C 91 % 1013,2 hPa 0,0 l/m 1,6 km/h (1 Bft) O-NO 67 0 min 0,000 mm 0 W/m 2,6 C 3,9 C 6,4 km/h (2 Bft) 99 %
22.03.2017 04:10 3,8 C 3,8 C 3,9 C 90 % 1013,4 hPa 0,0 l/m 1,6 km/h (1 Bft) NO 45 0 min 0,000 mm 0 W/m 2,3 C 3,8 C 8,0 km/h (2 Bft) 100 %
22.03.2017 04:20 3,8 C 3,8 C 3,9 C 91 % 1013,3 hPa 0,0 l/m 0,0 km/h (0 Bft) O-NO 67 0 min 0,000 mm 0 W/m 2,5 C 3,8 C 6,4 km/h (2 Bft) 100 %
22.03.2017 04:30 3,9 C 3,8 C 3,9 C 91 % 1013,2 hPa 0,0 l/m 0,0 km/h (0 Bft) O-NO 67 0 min 0,000 mm 0 W/m 2,6 C 3,9 C 6,4 km/h (2 Bft) 100 %
22.03.2017 04:40 3,9 C 3,8 C 3,9 C 91 % 1013,3 hPa 0,0 l/m 0,0 km/h (0 Bft) N 0 0 min 0,000 mm 0 W/m 2,6 C 3,9 C 0,0 km/h (0 Bft) 100 %
22.03.2017 04:50 3,8 C 3,8 C 3,9 C 90 % 1013,3 hPa 0,0 l/m 0,0 km/h (0 Bft) NO 45 0 min 0,000 mm 0 W/m 2,3 C 3,8 C 8,0 km/h (2 Bft) 100 %
22.03.2017 05:00 3,8 C 3,8 C 3,9 C 90 % 1013,3 hPa 0,0 l/m 0,0 km/h (0 Bft) N 0 0 min 0,000 mm 0 W/m 2,3 C 3,8 C 0,0 km/h (0 Bft) 100 %
22.03.2017 05:10 3,9 C 3,8 C 3,9 C 90 % 1013,3 hPa 0,0 l/m 0,0 km/h (0 Bft) N 0 0 min 0,000 mm 0 W/m 2,4 C 3,9 C 0,0 km/h (0 Bft) 100 %
22.03.2017 05:20 3,8 C 3,8 C 3,8 C 90 % 1013,3 hPa 0,0 l/m 0,0 km/h (0 Bft) NO 45 0 min 0,000 mm 0 W/m 2,3 C 3,8 C 1,6 km/h (1 Bft) 100 %
22.03.2017 05:30 3,8 C 3,8 C 3,8 C 91 % 1013,4 hPa 0,0 l/m 0,0 km/h (0 Bft) N 0 0 min 0,000 mm 0 W/m 2,5 C 3,8 C 0,0 km/h (0 Bft) 99 %
22.03.2017 05:40 3,8 C 3,8 C 3,8 C 91 % 1013,4 hPa 0,0 l/m 0,0 km/h (0 Bft) N 0 0 min 0,000 mm 0 W/m 2,5 C 3,8 C 0,0 km/h (0 Bft) 100 %
22.03.2017 05:50 3,8 C 3,8 C 3,8 C 91 % 1013,4 hPa 0,0 l/m 0,0 km/h (0 Bft) N-NO 22 0 min 0,000 mm 0 W/m 2,5 C 3,8 C 1,6 km/h (1 Bft) 100 %
22.03.2017 06:10 3,7 C 3,7 C 3,8 C 91 % 1013,5 hPa 0,0 l/m 0,0 km/h (0 Bft) N-NO 31 0 min 0,000 mm 0 W/m 2,4 C 3,7 C 0,0 km/h (0 Bft) 100 %
22.03.2017 06:20 3,7 C 3,7 C 3,7 C 91 % 1013,6 hPa 0,0 l/m 0,0 km/h (0 Bft) N-NO 31 0 min 0,000 mm 0 W/m 2,4 C 3,7 C 0,0 km/h (0 Bft) 100 %
22.03.2017 06:30 3,6 C 3,6 C 3,7 C 91 % 1013,7 hPa 0,0 l/m 0,0 km/h (0 Bft) N-NO 31 0 min 0,000 mm 0 W/m 2,3 C 3,6 C 0,0 km/h (0 Bft) 100 %
22.03.2017 06:40 3,6 C 3,6 C 3,7 C 91 % 1013,6 hPa 0,0 l/m 0,0 km/h (0 Bft) N-NO 31 0 min 0,000 mm 5 W/m 2,3 C 3,6 C 0,0 km/h (0 Bft) 100 %
22.03.2017 06:50 3,7 C 3,6 C 3,7 C 91 % 1013,6 hPa 0,0 l/m 0,0 km/h (0 Bft) N-NO 31 0 min 0,000 mm 9 W/m 2,4 C 3,7 C 0,0 km/h (0 Bft) 100 %
22.03.2017 07:00 3,7 C 3,7 C 3,7 C 91 % 1013,7 hPa 0,0 l/m 0,0 km/h (0 Bft) N-NO 31 0 min 0,000 mm 21 W/m 2,4 C 3,7 C 0,0 km/h (0 Bft) 100 %
22.03.2017 07:10 3,8 C 3,7 C 3,8 C 91 % 1013,9 hPa 0,0 l/m 0,0 km/h (0 Bft) N-NO 31 0 min 0,000 mm 33 W/m 2,5 C 3,8 C 0,0 km/h (0 Bft) 100 %
22.03.2017 07:20 3,9 C 3,8 C 3,9 C 91 % 1013,9 hPa 0,0 l/m 0,0 km/h (0 Bft) N-NO 31 0 min 0,000 mm 44 W/m 2,6 C 3,9 C 0,0 km/h (0 Bft) 100 %
22.03.2017 07:30 4,0 C 3,9 C 4,0 C 91 % 1013,7 hPa 0,0 l/m 0,0 km/h (0 Bft) N-NO 31 0 min 0,000 mm 47 W/m 2,7 C 4,0 C 0,0 km/h (0 Bft) 100 %
22.03.2017 07:40 4,2 C 4,0 C 4,2 C 91 % 1013,4 hPa 0,0 l/m 0,0 km/h (0 Bft) N-NO 31 0 min 0,000 mm 63 W/m 2,9 C 4,2 C 0,0 km/h (0 Bft) 100 %
22.03.2017 07:50 4,3 C 4,1 C 4,3 C 91 % 1013,5 hPa 0,0 l/m 1,1 km/h (1 Bft) N-NO 13 0 min 0,000 mm 95 W/m 3,0 C 4,3 C 4,8 km/h (1 Bft) 100 %
22.03.2017 08:00 4,6 C 4,3 C 4,6 C 91 % 1013,4 hPa 0,0 l/m 2,1 km/h (1 Bft) N-NW 343 0 min 0,000 mm 123 W/m 3,3 C 4,6 C 6,4 km/h (2 Bft) 100 %
22.03.2017 08:10 4,8 C 4,6 C 4,8 C 91 % 1013,3 hPa 0,0 l/m 0,1 km/h (0 Bft) N-NW 343 10 min 0,025 mm 176 W/m 3,5 C 4,8 C 3,2 km/h (1 Bft) 100 %
22.03.2017 08:20 5,1 C 4,8 C 5,1 C 91 % 1013,3 hPa 0,0 l/m 0,0 km/h (0 Bft) N-NW 343 10 min 0,000 mm 169 W/m 3,8 C 5,1 C 0,0 km/h (0 Bft) 100 %
22.03.2017 08:30 5,3 C 5,1 C 5,3 C 92 % 1013,4 hPa 0,0 l/m 0,0 km/h (0 Bft) N-NW 343 10 min 0,000 mm 169 W/m 4,1 C 5,3 C 1,6 km/h (1 Bft) 100 %
22.03.2017 08:40 5,6 C 5,3 C 5,6 C 91 % 1013,5 hPa 0,0 l/m 0,3 km/h (0 Bft) N-NO 30 0 min 0,000 mm 151 W/m 4,2 C 5,6 C 6,4 km/h (2 Bft) 92 %
22.03.2017 08:50 5,6 C 5,6 C 5,6 C 87 % 1013,6 hPa 0,0 l/m 1,8 km/h (1 Bft) O-NO 64 0 min 0,000 mm 149 W/m 3,6 C 5,6 C 6,4 km/h (2 Bft) 100 %
22.03.2017 09:00 5,7 C 5,6 C 5,8 C 88 % 1013,6 hPa 0,0 l/m 0,1 km/h (0 Bft) O-NO 64 0 min 0,051 mm 139 W/m 3,9 C 5,7 C 3,2 km/h (1 Bft) 99 %
22.03.2017 09:10 5,8 C 5,7 C 5,8 C 87 % 1013,5 hPa 0,0 l/m 0,6 km/h (0 Bft) NO 54 10 min 0,000 mm 169 W/m 3,8 C 5,8 C 4,8 km/h (1 Bft) 100 %
22.03.2017 09:20 6,0 C 5,8 C 6,0 C 87 % 1013,6 hPa 0,0 l/m 0,6 km/h (0 Bft) O-NO 57 10 min 0,000 mm 156 W/m 4,0 C 6,0 C 6,4 km/h (2 Bft) 100 %
22.03.2017 09:30 6,2 C 6,0 C 6,2 C 86 % 1013,8 hPa 0,0 l/m 0,3 km/h (0 Bft) O 80 10 min 0,000 mm 202 W/m 4,0 C 6,2 C 6,4 km/h (2 Bft) 100 %
22.03.2017 09:40 6,4 C 6,2 C 6,4 C 84 % 1013,7 hPa 0,0 l/m 1,4 km/h (1 Bft) O-NO 63 10 min 0,000 mm 253 W/m 3,9 C 6,4 C 8,0 km/h (2 Bft) 100 %
22.03.2017 09:50 6,7 C 6,4 C 6,7 C 84 % 1013,6 hPa 0,0 l/m 0,1 km/h (0 Bft) NO 55 10 min 0,000 mm 357 W/m 4,2 C 6,7 C 1,6 km/h (1 Bft) 100 %
22.03.2017 10:00 7,0 C 6,7 C 7,0 C 81 % 1013,7 hPa 0,0 l/m 2,5 km/h (1 Bft) NO 46 10 min 0,102 mm 192 W/m 4,0 C 7,0 C 16,1 km/h (3 Bft) 100 %
22.03.2017 10:10 6,9 C 6,9 C 7,0 C 82 % 1013,8 hPa 0,0 l/m 2,6 km/h (1 Bft) NO 54 0 min 0,000 mm 148 W/m 4,0 C 6,9 C 9,7 km/h (2 Bft) 100 %
22.03.2017 10:20 6,9 C 6,9 C 6,9 C 81 % 1013,7 hPa 0,0 l/m 0,9 km/h (0 Bft) NO 40 0 min 0,000 mm 116 W/m 3,9 C 6,9 C 8,0 km/h (2 Bft) 100 %
22.03.2017 10:30 6,8 C 6,8 C 6,9 C 81 % 1013,7 hPa 0,0 l/m 0,6 km/h (0 Bft) O 92 0 min 0,000 mm 132 W/m 3,8 C 6,8 C 8,0 km/h (2 Bft) 100 %
22.03.2017 10:40 6,6 C 6,6 C 6,8 C 82 % 1013,6 hPa 0,0 l/m 1,7 km/h (1 Bft) SO 140 10 min 0,000 mm 221 W/m 3,8 C 6,6 C 9,7 km/h (2 Bft) 100 %
22.03.2017 10:50 6,7 C 6,6 C 6,7 C 84 % 1013,5 hPa 0,0 l/m 1,9 km/h (1 Bft) SO 131 10 min 0,000 mm 167 W/m 4,2 C 6,7 C 11,3 km/h (2 Bft) 100 %
22.03.2017 11:00 6,7 C 6,6 C 6,7 C 84 % 1013,4 hPa 0,0 l/m 1,6 km/h (1 Bft) O-NO 71 0 min 0,000 mm 137 W/m 4,2 C 6,7 C 11,3 km/h (2 Bft) 100 %
22.03.2017 11:10 6,7 C 6,7 C 6,7 C 84 % 1013,4 hPa 0,0 l/m 0,7 km/h (0 Bft) N-NO 24 0 min 0,076 mm 130 W/m 4,2 C 6,7 C 8,0 km/h (2 Bft) 100 %
22.03.2017 11:20 6,6 C 6,6 C 6,7 C 83 % 1013,6 hPa 0,0 l/m 1,2 km/h (1 Bft) SO 134 0 min 0,000 mm 79 W/m 3,9 C 6,6 C 9,7 km/h (2 Bft) 100 %
22.03.2017 11:30 6,4 C 6,4 C 6,6 C 84 % 1013,6 hPa 0,0 l/m 3,2 km/h (1 Bft) SO 131 0 min 0,000 mm 95 W/m 3,9 C 6,4 C 8,0 km/h (2 Bft) 100 %
22.03.2017 11:40 6,3 C 6,3 C 6,4 C 84 % 1013,7 hPa 0,0 l/m 1,6 km/h (1 Bft) SO 126 0 min 0,000 mm 84 W/m 3,8 C 6,3 C 8,0 km/h (2 Bft) 100 %
22.03.2017 11:50 6,3 C 6,3 C 6,3 C 84 % 1013,5 hPa 0,0 l/m 1,9 km/h (1 Bft) O 89 0 min 0,000 mm 88 W/m 3,8 C 6,3 C 8,0 km/h (2 Bft) 99 %
22.03.2017 12:00 6,3 C 6,3 C 6,3 C 84 % 1013,6 hPa 0,0 l/m 1,5 km/h (1 Bft) O-NO 77 0 min 0,051 mm 102 W/m 3,8 C 6,3 C 8,0 km/h (2 Bft) 100 %
22.03.2017 12:10 6,4 C 6,3 C 6,4 C 84 % 1013,5 hPa 0,0 l/m 0,6 km/h (0 Bft) O 95 0 min 0,000 mm 95 W/m 3,9 C 6,4 C 6,4 km/h (2 Bft) 99 %
22.03.2017 12:20 6,4 C 6,4 C 6,4 C 84 % 1013,5 hPa 0,0 l/m 0,9 km/h (0 Bft) O 80 0 min 0,000 mm 98 W/m 3,9 C 6,4 C 16,1 km/h (3 Bft) 91 %
22.03.2017 12:30 6,4 C 6,4 C 6,4 C 84 % 1013,5 hPa 0,0 l/m 1,6 km/h (1 Bft) O-SO 107 0 min 0,000 mm 86 W/m 3,9 C 6,4 C 9,7 km/h (2 Bft) 100 %
22.03.2017 12:40 6,5 C 6,4 C 6,5 C 84 % 1013,5 hPa 0,0 l/m 0,2 km/h (0 Bft) SO 126 0 min 0,000 mm 98 W/m 4,0 C 6,5 C 3,2 km/h (1 Bft) 100 %
22.03.2017 12:50 6,5 C 6,5 C 6,6 C 84 % 1013,4 hPa 0,0 l/m 0,9 km/h (0 Bft) O-SO 107 0 min 0,000 mm 118 W/m 4,0 C 6,5 C 8,0 km/h (2 Bft) 100 %
22.03.2017 13:00 6,6 C 6,5 C 6,6 C 83 % 1013,1 hPa 0,0 l/m 0,1 km/h (0 Bft) O 82 0 min 0,051 mm 137 W/m 3,9 C 6,6 C 3,2 km/h (1 Bft) 100 %
22.03.2017 13:10 6,7 C 6,6 C 6,7 C 83 % 1013,1 hPa 0,0 l/m 0,1 km/h (0 Bft) O-NO 74 0 min 0,000 mm 137 W/m 4,0 C 6,7 C 4,8 km/h (1 Bft) 99 %
22.03.2017 13:20 6,8 C 6,7 C 6,8 C 83 % 1013,3 hPa 0,0 l/m 0,2 km/h (0 Bft) O 86 0 min 0,000 mm 111 W/m 4,1 C 6,8 C 6,4 km/h (2 Bft) 100 %
22.03.2017 13:30 6,7 C 6,7 C 6,8 C 83 % 1013,2 hPa 0,0 l/m 0,8 km/h (0 Bft) O-SO 120 0 min 0,000 mm 128 W/m 4,0 C 6,7 C 8,0 km/h (2 Bft) 99 %
22.03.2017 13:40 6,7 C 6,6 C 6,7 C 82 % 1013,2 hPa 0,0 l/m 2,3 km/h (1 Bft) O 94 0 min 0,000 mm 135 W/m 3,8 C 6,7 C 9,7 km/h (2 Bft) 99 %
22.03.2017 13:50 6,6 C 6,6 C 6,7 C 83 % 1013,2 hPa 0,0 l/m 0,9 km/h (0 Bft) O-SO 123 0 min 0,000 mm 127 W/m 3,9 C 6,6 C 8,0 km/h (2 Bft) 99 %
22.03.2017 14:00 6,7 C 6,6 C 6,7 C 83 % 1013,2 hPa 0,0 l/m 0,0 km/h (0 Bft) O-SO 115 10 min 0,050 mm 155 W/m 4,0 C 6,7 C 0,0 km/h (0 Bft) 99 %
22.03.2017 14:10 6,7 C 6,7 C 6,7 C 83 % 1013,2 hPa 0,0 l/m 0,3 km/h (0 Bft) SO 134 0 min 0,000 mm 134 W/m 4,0 C 6,7 C 9,7 km/h (2 Bft) 99 %
22.03.2017 14:20 6,7 C 6,7 C 6,7 C 83 % 1013,2 hPa 0,0 l/m 3,9 km/h (1 Bft) O 94 0 min 0,000 mm 105 W/m 4,0 C 6,7 C 11,3 km/h (2 Bft) 99 %
22.03.2017 14:30 6,7 C 6,7 C 6,7 C 83 % 1013,2 hPa 0,0 l/m 0,8 km/h (0 Bft) O-SO 115 0 min 0,000 mm 83 W/m 4,0 C 6,7 C 6,4 km/h (2 Bft) 99 %
22.03.2017 14:40 6,6 C 6,6 C 6,7 C 83 % 1013,2 hPa 0,0 l/m 1,8 km/h (1 Bft) O-SO 123 0 min 0,000 mm 74 W/m 3,9 C 6,6 C 8,0 km/h (2 Bft) 98 %
22.03.2017 14:50 6,6 C 6,6 C 6,6 C 84 % 1013,1 hPa 0,0 l/m 0,2 km/h (0 Bft) O-SO 104 0 min 0,000 mm 81 W/m 4,1 C 6,6 C 8,0 km/h (2 Bft) 97 %
22.03.2017 15:00 6,6 C 6,6 C 6,6 C 85 % 1013,0 hPa 0,0 l/m 0,0 km/h (0 Bft) O-SO 102 0 min 0,051 mm 70 W/m 4,3 C 6,6 C 1,6 km/h (1 Bft) 97 %
22.03.2017 15:10 6,7 C 6,6 C 6,7 C 85 % 1013,0 hPa 0,0 l/m 0,0 km/h (0 Bft) O 101 0 min 0,000 mm 67 W/m 4,4 C 6,7 C 0,0 km/h (0 Bft) 97 %
22.03.2017 15:20 6,7 C 6,7 C 6,7 C 84 % 1013,0 hPa 0,0 l/m 0,2 km/h (0 Bft) O-SO 103 0 min 0,000 mm 74 W/m 4,2 C 6,7 C 6,4 km/h (2 Bft) 97 %
22.03.2017 15:30 6,7 C 6,7 C 6,7 C 85 % 1013,0 hPa 0,0 l/m 0,0 km/h (0 Bft) O-SO 103 0 min 0,000 mm 79 W/m 4,4 C 6,7 C 1,6 km/h (1 Bft) 97 %
22.03.2017 15:40 6,8 C 6,7 C 6,8 C 85 % 1012,8 hPa 0,0 l/m 0,7 km/h (0 Bft) O 90 0 min 0,000 mm 100 W/m 4,5 C 6,8 C 8,0 km/h (2 Bft) 97 %
22.03.2017 15:50 6,8 C 6,7 C 6,8 C 85 % 1012,9 hPa 0,0 l/m 1,0 km/h (0 Bft) O 100 0 min 0,000 mm 95 W/m 4,5 C 6,8 C 6,4 km/h (2 Bft) 98 %
22.03.2017 16:00 6,9 C 6,8 C 6,9 C 84 % 1012,9 hPa 0,0 l/m 1,3 km/h (1 Bft) O-SO 113 0 min 0,051 mm 127 W/m 4,4 C 6,9 C 6,4 km/h (2 Bft) 98 %
22.03.2017 16:10 7,0 C 6,8 C 7,0 C 84 % 1012,9 hPa 0,0 l/m 0,0 km/h (0 Bft) O 93 0 min 0,000 mm 146 W/m 4,5 C 7,0 C 1,6 km/h (1 Bft) 97 %
22.03.2017 16:20 7,2 C 7,0 C 7,2 C 85 % 1012,8 hPa 0,0 l/m 0,1 km/h (0 Bft) O 82 0 min 0,000 mm 116 W/m 4,9 C 7,2 C 4,8 km/h (1 Bft) 97 %
22.03.2017 16:30 7,3 C 7,2 C 7,3 C 84 % 1012,7 hPa 0,0 l/m 0,0 km/h (0 Bft) O 84 0 min 0,000 mm 69 W/m 4,8 C 7,3 C 1,6 km/h (1 Bft) 97 %
22.03.2017 16:40 7,3 C 7,3 C 7,3 C 84 % 1012,7 hPa 0,0 l/m 0,0 km/h (0 Bft) O-NO 74 0 min 0,000 mm 53 W/m 4,8 C 7,3 C 3,2 km/h (1 Bft) 97 %
22.03.2017 16:50 7,3 C 7,3 C 7,3 C 84 % 1012,7 hPa 0,0 l/m 0,0 km/h (0 Bft) O-NO 74 0 min 0,000 mm 65 W/m 4,8 C 7,3 C 0,0 km/h (0 Bft) 97 %
22.03.2017 17:00 7,3 C 7,3 C 7,3 C 85 % 1012,7 hPa 0,0 l/m 0,1 km/h (0 Bft) O-NO 76 0 min 0,051 mm 70 W/m 4,9 C 7,3 C 3,2 km/h (1 Bft) 97 %
22.03.2017 17:10 7,3 C 7,2 C 7,3 C 86 % 1012,8 hPa 0,0 l/m 0,0 km/h (0 Bft) O-NO 67 0 min 0,000 mm 49 W/m 5,1 C 7,3 C 1,6 km/h (1 Bft) 97 %
22.03.2017 17:20 7,2 C 7,2 C 7,3 C 84 % 1012,8 hPa 0,0 l/m 0,0 km/h (0 Bft) O-NO 70 0 min 0,000 mm 26 W/m 4,7 C 7,2 C 1,6 km/h (1 Bft) 97 %
22.03.2017 17:30 7,1 C 7,1 C 7,2 C 85 % 1012,8 hPa 0,0 l/m 0,0 km/h (0 Bft) O-NO 70 0 min 0,000 mm 26 W/m 4,8 C 7,1 C 0,0 km/h (0 Bft) 97 %
22.03.2017 17:40 7,1 C 7,1 C 7,1 C 85 % 1012,9 hPa 0,0 l/m 0,0 km/h (0 Bft) O-NO 70 0 min 0,000 mm 16 W/m 4,8 C 7,1 C 0,0 km/h (0 Bft) 97 %
22.03.2017 17:50 7,1 C 7,1 C 7,1 C 85 % 1012,9 hPa 0,0 l/m 0,0 km/h (0 Bft) O-NO 70 0 min 0,000 mm 12 W/m 4,8 C 7,1 C 0,0 km/h (0 Bft) 98 %
22.03.2017 18:00 7,1 C 7,1 C 7,1 C 85 % 1012,8 hPa 0,0 l/m 0,0 km/h (0 Bft) O-NO 70 0 min 0,025 mm 11 W/m 4,8 C 7,1 C 0,0 km/h (0 Bft) 97 %
22.03.2017 18:10 7,0 C 7,0 C 7,1 C 85 % 1012,8 hPa 0,0 l/m 0,0 km/h (0 Bft) O-NO 70 0 min 0,000 mm 5 W/m 4,7 C 7,0 C 0,0 km/h (0 Bft) 98 %
22.03.2017 18:20 6,9 C 6,9 C 7,0 C 86 % 1012,9 hPa 0,0 l/m 0,0 km/h (0 Bft) O-NO 70 0 min 0,000 mm 0 W/m 4,7 C 6,9 C 0,0 km/h (0 Bft) 97 %
22.03.2017 18:30 6,9 C 6,9 C 6,9 C 86 % 1012,9 hPa 0,0 l/m 0,0 km/h (0 Bft) O-NO 61 0 min 0,000 mm 0 W/m 4,7 C 6,9 C 0,0 km/h (0 Bft) 97 %
22.03.2017 18:40 6,8 C 6,8 C 6,9 C 86 % 1012,9 hPa 0,0 l/m 0,0 km/h (0 Bft) O-NO 61 0 min 0,000 mm 0 W/m 4,6 C 6,8 C 0,0 km/h (0 Bft) 98 %
22.03.2017 18:50 6,8 C 6,8 C 6,8 C 87 % 1012,9 hPa 0,0 l/m 0,0 km/h (0 Bft) O-NO 61 0 min 0,000 mm 0 W/m 4,8 C 6,8 C 0,0 km/h (0 Bft) 97 %
22.03.2017 19:00 6,7 C 6,7 C 6,8 C 88 % 1012,9 hPa 0,0 l/m 0,0 km/h (0 Bft) O-NO 61 0 min 0,000 mm 0 W/m 4,9 C 6,7 C 0,0 km/h (0 Bft) 98 %
22.03.2017 19:10 6,6 C 6,6 C 6,7 C 88 % 1012,9 hPa 0,0 l/m 0,0 km/h (0 Bft) O-NO 61 0 min 0,000 mm 0 W/m 4,8 C 6,6 C 1,6 km/h (1 Bft) 97 %
22.03.2017 19:20 6,6 C 6,6 C 6,6 C 88 % 1012,9 hPa 0,0 l/m 0,0 km/h (0 Bft) O-NO 59 0 min 0,000 mm 0 W/m 4,8 C 6,6 C 1,6 km/h (1 Bft) 98 %
22.03.2017 19:30 6,5 C 6,5 C 6,6 C 89 % 1012,9 hPa 0,0 l/m 0,0 km/h (0 Bft) O-NO 59 0 min 0,000 mm 0 W/m 4,8 C 6,5 C 0,0 km/h (0 Bft) 97 %
22.03.2017 19:40 6,4 C 6,4 C 6,5 C 89 % 1012,9 hPa 0,0 l/m 0,0 km/h (0 Bft) O-NO 59 0 min 0,000 mm 0 W/m 4,7 C 6,4 C 0,0 km/h (0 Bft) 94 %
22.03.2017 19:50 6,3 C 6,3 C 6,4 C 89 % 1012,9 hPa 0,0 l/m 0,0 km/h (0 Bft) O-NO 59 0 min 0,000 mm 0 W/m 4,6 C 6,3 C 0,0 km/h (0 Bft) 92 %
22.03.2017 20:00 6,3 C 6,3 C 6,3 C 90 % 1012,9 hPa 0,0 l/m 0,0 km/h (0 Bft) O-NO 59 0 min 0,000 mm 0 W/m 4,8 C 6,3 C 1,6 km/h (1 Bft) 97 %
22.03.2017 20:10 6,2 C 6,2 C 6,3 C 89 % 1012,9 hPa 0,0 l/m 0,2 km/h (0 Bft) O-NO 59 0 min 0,000 mm 0 W/m 4,5 C 6,2 C 3,2 km/h (1 Bft) 98 %
22.03.2017 20:20 6,2 C 6,2 C 6,2 C 90 % 1013,0 hPa 0,0 l/m 0,6 km/h (0 Bft) O-NO 59 0 min 0,000 mm 0 W/m 4,7 C 6,2 C 3,2 km/h (1 Bft) 97 %
22.03.2017 20:30 6,2 C 6,2 C 6,2 C 90 % 1013,1 hPa 0,0 l/m 0,1 km/h (0 Bft) NO 53 0 min 0,000 mm 0 W/m 4,7 C 6,2 C 4,8 km/h (1 Bft) 98 %
22.03.2017 20:40 6,1 C 6,1 C 6,2 C 90 % 1013,1 hPa 0,0 l/m 0,1 km/h (0 Bft) NO 53 0 min 0,000 mm 0 W/m 4,6 C 6,1 C 3,2 km/h (1 Bft) 97 %
22.03.2017 20:50 6,1 C 6,1 C 6,1 C 90 % 1013,1 hPa 0,0 l/m 0,9 km/h (0 Bft) NO 53 0 min 0,000 mm 0 W/m 4,6 C 6,1 C 4,8 km/h (1 Bft) 89 %
22.03.2017 21:00 6,1 C 6,1 C 6,1 C 90 % 1012,9 hPa 0,0 l/m 1,2 km/h (1 Bft) NO 38 0 min 0,000 mm 0 W/m 4,6 C 6,1 C 6,4 km/h (2 Bft) 98 %
22.03.2017 21:10 6,1 C 6,1 C 6,1 C 90 % 1013,0 hPa 0,0 l/m 0,0 km/h (0 Bft) NO 38 0 min 0,000 mm 0 W/m 4,6 C 6,1 C 0,0 km/h (0 Bft) 97 %
22.03.2017 21:20 6,1 C 6,1 C 6,1 C 90 % 1013,2 hPa 0,0 l/m 0,0 km/h (0 Bft) NO 38 0 min 0,000 mm 0 W/m 4,6 C 6,1 C 0,0 km/h (0 Bft) 97 %
22.03.2017 21:30 6,1 C 6,1 C 6,1 C 90 % 1013,3 hPa 0,0 l/m 0,0 km/h (0 Bft) NO 38 0 min 0,000 mm 0 W/m 4,6 C 6,1 C 0,0 km/h (0 Bft) 97 %
22.03.2017 21:40 6,1 C 6,1 C 6,1 C 90 % 1013,5 hPa 0,0 l/m 0,0 km/h (0 Bft) NO 38 0 min 0,000 mm 0 W/m 4,6 C 6,1 C 0,0 km/h (0 Bft) 98 %
22.03.2017 21:50 6,1 C 6,1 C 6,1 C 90 % 1013,4 hPa 0,0 l/m 0,0 km/h (0 Bft) NO 38 0 min 0,000 mm 0 W/m 4,6 C 6,1 C 0,0 km/h (0 Bft) 97 %
22.03.2017 22:00 6,1 C 6,1 C 6,1 C 90 % 1013,0 hPa 0,0 l/m 0,0 km/h (0 Bft) NO 38 0 min 0,000 mm 0 W/m 4,6 C 6,1 C 0,0 km/h (0 Bft) 97 %
22.03.2017 22:10 5,9 C 5,9 C 6,1 C 90 % 1013,0 hPa 0,0 l/m 0,0 km/h (0 Bft) NO 38 0 min 0,000 mm 0 W/m 4,4 C 5,9 C 1,6 km/h (1 Bft) 98 %
22.03.2017 22:20 5,8 C 5,8 C 5,9 C 91 % 1013,0 hPa 0,0 l/m 0,0 km/h (0 Bft) NO 38 0 min 0,000 mm 0 W/m 4,4 C 5,8 C 0,0 km/h (0 Bft) 97 %
22.03.2017 22:30 5,8 C 5,8 C 5,8 C 91 % 1013,0 hPa 0,0 l/m 0,0 km/h (0 Bft) NO 38 0 min 0,000 mm 0 W/m 4,4 C 5,8 C 0,0 km/h (0 Bft) 98 %
22.03.2017 22:40 5,8 C 5,8 C 5,8 C 91 % 1013,1 hPa 0,0 l/m 0,2 km/h (0 Bft) NO 50 0 min 0,000 mm 0 W/m 4,4 C 5,8 C 4,8 km/h (1 Bft) 97 %
22.03.2017 22:50 5,8 C 5,8 C 5,8 C 91 % 1013,4 hPa 0,0 l/m 0,2 km/h (0 Bft) NO 50 0 min 0,000 mm 0 W/m 4,4 C 5,8 C 3,2 km/h (1 Bft) 97 %
22.03.2017 23:00 5,8 C 5,7 C 5,8 C 91 % 1013,1 hPa 0,0 l/m 0,0 km/h (0 Bft) NO 50 0 min 0,000 mm 0 W/m 4,4 C 5,8 C 0,0 km/h (0 Bft) 89 %
22.03.2017 23:10 5,7 C 5,7 C 5,8 C 91 % 1013,1 hPa 0,0 l/m 0,0 km/h (0 Bft) NO 50 0 min 0,000 mm 0 W/m 4,3 C 5,7 C 1,6 km/h (1 Bft) 98 %
22.03.2017 23:20 5,7 C 5,7 C 5,7 C 91 % 1013,4 hPa 0,0 l/m 0,0 km/h (0 Bft) NO 49 0 min 0,000 mm 0 W/m 4,3 C 5,7 C 0,0 km/h (0 Bft) 98 %
22.03.2017 23:30 5,6 C 5,6 C 5,7 C 91 % 1013,4 hPa 0,0 l/m 0,0 km/h (0 Bft) NO 49 0 min 0,000 mm 0 W/m 4,2 C 5,6 C 0,0 km/h (0 Bft) 99 %
22.03.2017 23:40 5,5 C 5,5 C 5,6 C 91 % 1013,5 hPa 0,0 l/m 0,0 km/h (0 Bft) NO 49 0 min 0,000 mm 0 W/m 4,2 C 5,5 C 0,0 km/h (0 Bft) 99 %
22.03.2017 23:50 5,4 C 5,4 C 5,6 C 91 % 1013,5 hPa 0,0 l/m 0,0 km/h (0 Bft) NO 47 0 min 0,000 mm 0 W/m 4,1 C 5,4 C 1,6 km/h (1 Bft) 100 %
_ Min-Zeit 01:50 01:50 01:20 10:00 16:30 - 00:00 - - - - - 01:50 01:50 00:20 20:50
Minimum _ 3,3 C 3,3 C 3,4 C 81 % 1012,7 hPa - 0,0 km/h (0 Bft) - - - - - 2,0 C 3,3 C 0,0 km/h (0 Bft) 89 %
_ Max-Zeit 16:30 16:40 16:30 00:00 00:00 00:00 14:20 - - 08:10 10:00 09:50 17:10 16:30 10:00 00:00
Maximum _ 7,3 C 7,3 C 7,3 C 92 % 1014,2 hPa 0,2 l/m 3,9 km/h
O (1 Bft)
- - 10 min 0,102 mm 357 W/m 5,1 C 7,3 C 16,1 km/h
O-NO (3 Bft)
100 %
Durchschnitt _ 5,5 C 5,5 C 5,6 C 88 % 1013,3 hPa #0,4 l/m 0,4 km/h (0 Bft) O-SO - #2:00 h #0,584 mm 106 W/m 3,7 C 5,5 C 3,5 km/h (1 Bft) 98 %
PRIVATE WETTERSTATION BILLIGHEIM-ALLFELD - www.neckar-odenwald-wetter.de - Holger Sonntag